Time;durP1;ratioP1;P1;durP2;ratioP2;P2;SDS_P1;SDS_P2;PMS_P1;PMS_P2;Temp;Humidity;BMP_temperature;BMP_pressure;BME280_temperature;BME280_humidity;BME280_pressure;Samples;Min_cycle;Max_cycle;Signal;HPM_P1;HPM_P2
2020/12/13 00:01:53;;;;;;;5.63;4.43;;;;;;;2.49;100.00;100116.91;4950958;28;20060;-79
2020/12/13 00:04:18;;;;;;;4.97;3.75;;;;;;;2.53;100.00;100110.34;4936585;29;20035;-79
2020/12/13 00:06:44;;;;;;;4.82;3.72;;;;;;;2.53;100.00;100099.84;4951028;29;20409;-78
2020/12/13 00:09:09;;;;;;;5.38;4.25;;;;;;;2.48;100.00;100121.34;4950888;29;20028;-78
2020/12/13 00:11:39;;;;;;;6.07;4.43;;;;;;;2.51;100.00;100107.88;4935140;29;20038;-78
2020/12/13 00:14:04;;;;;;;4.95;4.18;;;;;;;2.49;100.00;100130.81;4935066;29;20110;-78
2020/12/13 00:16:30;;;;;;;6.22;4.50;;;;;;;2.50;100.00;100121.16;4935090;29;20127;-77
2020/12/13 00:18:55;;;;;;;5.65;4.07;;;;;;;2.48;100.00;100118.72;4934950;29;20055;-78
2020/12/13 00:21:26;;;;;;;6.20;4.00;;;;;;;2.48;100.00;100121.34;4935045;29;20031;-79
2020/12/13 00:23:52;;;;;;;5.25;3.97;;;;;;;2.49;100.00;100124.78;4934756;29;20050;-78
2020/12/13 00:26:17;;;;;;;5.22;3.83;;;;;;;2.48;100.00;100129.19;4950919;28;20032;-78
2020/12/13 00:28:43;;;;;;;5.35;4.32;;;;;;;2.48;100.00;100137.06;4935937;29;20377;-78
2020/12/13 00:31:13;;;;;;;7.38;5.18;;;;;;;2.48;100.00;100136.22;4934843;29;20027;-78
2020/12/13 00:33:39;;;;;;;5.70;4.38;;;;;;;2.50;100.00;100147.38;4950938;29;20028;-78
2020/12/13 00:36:04;;;;;;;8.43;5.40;;;;;;;2.53;100.00;100147.84;4954121;29;20027;-79
2020/12/13 00:38:29;;;;;;;8.07;4.93;;;;;;;2.56;100.00;100146.69;4939327;29;20054;-78
2020/12/13 00:40:55;;;;;;;9.77;6.15;;;;;;;2.58;100.00;100146.53;4938644;29;20393;-79
2020/12/13 00:43:20;;;;;;;10.18;6.00;;;;;;;2.53;100.00;100153.09;4939480;29;20381;-78
2020/12/13 00:45:46;;;;;;;7.07;5.40;;;;;;;2.55;100.00;100146.88;4954502;29;20453;-79
2020/12/13 00:48:11;;;;;;;8.75;6.07;;;;;;;2.44;100.00;100148.84;4938486;29;20163;-78
2020/12/13 00:50:39;;;;;;;9.93;6.95;;;;;;;2.48;100.00;100150.19;4954406;29;20079;-78
2020/12/13 00:53:05;;;;;;;9.52;6.55;;;;;;;2.51;100.00;100144.59;4938182;29;20028;-79
2020/12/13 00:55:31;;;;;;;10.95;6.72;;;;;;;2.56;100.00;100146.69;4938302;29;20051;-79
2020/12/13 00:57:56;;;;;;;10.57;6.60;;;;;;;2.54;100.00;100143.41;4954197;29;20090;-78
2020/12/13 01:00:34;;;;;;;10.75;6.65;;;;;;;2.46;100.00;100157.38;4937343;29;20118;-79
2020/12/13 01:03:01;;;;;;;8.20;5.72;;;;;;;2.53;100.00;100158.34;4953529;29;20047;-78
2020/12/13 01:05:27;;;;;;;10.23;6.50;;;;;;;2.58;100.00;100167.53;4954084;29;20104;-78
2020/12/13 01:07:53;;;;;;;7.85;5.50;;;;;;;2.53;100.00;100166.19;4938911;29;20033;-79
2020/12/13 01:10:19;;;;;;;7.65;5.55;;;;;;;2.48;100.00;100155.41;4938045;29;20036;-77
2020/12/13 01:12:45;;;;;;;73.22;22.20;;;;;;;2.56;100.00;100164.25;4939337;29;20028;-78
2020/12/13 01:15:10;;;;;;;32.47;13.38;;;;;;;2.59;100.00;100172.59;4937968;29;20027;-78
2020/12/13 01:17:36;;;;;;;8.85;5.70;;;;;;;2.52;100.00;100156.72;4953902;29;20040;-79
2020/12/13 01:20:03;;;;;;;8.27;5.72;;;;;;;2.51;100.00;100167.34;4937809;29;20028;-78
2020/12/13 01:22:29;;;;;;;9.85;6.13;;;;;;;2.52;100.00;100156.72;4953573;29;20038;-78
2020/12/13 01:24:54;;;;;;;9.27;5.82;;;;;;;2.47;100.00;100161.63;4938677;29;20035;-78
2020/12/13 01:27:19;;;;;;;9.80;6.07;;;;;;;2.49;100.00;100167.53;4937699;29;20127;-79
2020/12/13 01:29:45;;;;;;;7.20;5.22;;;;;;;2.53;100.00;100157.53;4937782;29;20110;-79
2020/12/13 01:32:10;;;;;;;53.47;16.02;;;;;;;2.58;100.00;100163.09;4937699;29;20448;-79
2020/12/13 01:34:36;;;;;;;10.18;5.90;;;;;;;2.53;100.00;100160.97;4938688;29;20158;-78
2020/12/13 01:37:01;;;;;;;9.18;6.10;;;;;;;2.50;100.00;100161.28;4953306;29;20460;-79
2020/12/13 01:39:27;;;;;;;9.77;6.80;;;;;;;2.54;100.00;100151.28;4938489;29;20059;-79
2020/12/13 01:41:59;;;;;;;9.50;6.65;;;;;;;2.55;100.00;100157.38;4938614;29;20031;-78
2020/12/13 01:44:34;;;;;;;9.70;6.18;;;;;;;2.43;100.00;100154.28;4938601;29;20032;-77
2020/12/13 01:47:02;;;;;;;10.65;7.13;;;;;;;2.42;100.00;100148.22;4937407;29;20119;-78
2020/12/13 01:49:35;;;;;;;10.88;6.70;;;;;;;2.46;100.00;100160.00;4938301;29;20028;-79
2020/12/13 01:54:35;;;;;;;8.37;6.37;;;;;;;2.49;100.00;100164.09;4938309;29;20024;-79
2020/12/13 01:57:02;;;;;;;8.43;6.00;;;;;;;2.43;100.00;100170.00;4938534;29;20046;-77
2020/12/13 01:59:30;;;;;;;9.38;6.65;;;;;;;2.44;100.00;100174.25;4937154;29;20086;-78
2020/12/13 02:02:04;;;;;;;8.95;6.60;;;;;;;2.42;100.00;100171.81;4936913;29;20114;-78
2020/12/13 02:04:33;;;;;;;8.73;5.95;;;;;;;2.45;100.00;100165.38;4936814;29;20046;-79
2020/12/13 02:07:01;;;;;;;9.77;6.43;;;;;;;2.49;100.00;100172.78;4936986;29;20090;-78
2020/12/13 02:09:26;;;;;;;10.80;6.70;;;;;;;2.43;100.00;100177.88;4952963;29;20035;-79
2020/12/13 02:11:52;;;;;;;8.10;5.70;;;;;;;2.41;100.00;100183.25;4937923;29;20084;-78
2020/12/13 02:14:18;;;;;;;8.98;5.43;;;;;;;2.45;100.00;100174.09;4936977;29;20024;-78
2020/12/13 02:16:44;;;;;;;7.82;5.65;;;;;;;2.44;100.00;100174.25;4936897;29;20122;-78
2020/12/13 02:19:12;;;;;;;9.15;6.60;;;;;;;2.45;100.00;100168.84;4936501;29;20047;-78
2020/12/13 02:21:43;;;;;;;9.35;6.15;;;;;;;2.43;100.00;100173.44;4937772;29;20039;-78
2020/12/13 02:24:09;;;;;;;7.60;5.25;;;;;;;2.43;100.00;100167.38;4937587;29;20031;-79
2020/12/13 02:26:38;;;;;;;6.65;4.22;;;;;;;2.45;100.00;100176.72;4952698;29;20044;-78
2020/12/13 02:29:04;;;;;;;7.97;5.20;;;;;;;2.49;100.00;100179.81;4952711;29;20119;-79
2020/12/13 02:31:30;;;;;;;9.23;6.20;;;;;;;2.46;100.00;100173.09;4937533;29;20102;-77
2020/12/13 02:33:55;;;;;;;9.60;6.45;;;;;;;2.42;100.00;100192.78;4937334;29;20115;-79
2020/12/13 02:36:20;;;;;;;8.68;5.97;;;;;;;2.43;100.00;100189.16;4936542;29;20110;-79
2020/12/13 02:38:46;;;;;;;9.55;5.95;;;;;;;2.46;100.00;100188.03;4937173;29;20050;-78
2020/12/13 02:41:11;;;;;;;9.88;6.47;;;;;;;2.42;100.00;100187.53;4936410;29;20028;-78
2020/12/13 02:43:37;;;;;;;8.23;5.70;;;;;;;2.35;100.00;100196.22;4936405;29;20027;-79
2020/12/13 02:46:02;;;;;;;8.20;5.57;;;;;;;2.37;100.00;100210.78;4936426;29;20028;-79
2020/12/13 02:48:28;;;;;;;8.77;5.38;;;;;;;2.35;100.00;100206.69;4937287;29;20031;-78
2020/12/13 02:50:53;;;;;;;9.07;5.82;;;;;;;2.41;100.00;100209.47;4936257;29;20086;-79
2020/12/13 02:53:19;;;;;;;8.95;6.53;;;;;;;2.38;100.00;100195.88;4935911;29;20465;-79
2020/12/13 02:55:44;;;;;;;8.10;5.97;;;;;;;2.29;100.00;100193.25;4937621;29;20063;-79
2020/12/13 02:58:09;;;;;;;7.53;5.60;;;;;;;2.26;100.00;100192.78;4951486;28;20038;-79
2020/12/13 03:00:35;;;;;;;7.13;5.03;;;;;;;2.36;100.00;100187.34;4937069;29;20046;-79
2020/12/13 03:03:00;;;;;;;7.18;5.38;;;;;;;2.40;100.00;100183.44;4952029;29;20027;-79
2020/12/13 03:05:26;;;;;;;6.43;5.20;;;;;;;2.28;100.00;100201.31;4951917;29;20041;-79
2020/12/13 03:07:51;;;;;;;4.18;3.67;;;;;;;2.29;100.00;100197.69;4951688;29;20035;-79
2020/12/13 03:10:16;;;;;;;5.88;4.45;;;;;;;2.30;100.00;100199.34;4935592;29;20488;-79
2020/12/13 03:12:42;;;;;;;6.50;4.90;;;;;;;2.25;100.00;100196.38;4936783;29;20485;-78
2020/12/13 03:15:07;;;;;;;6.53;5.30;;;;;;;2.23;100.00;100199.16;4936808;29;20031;-79
2020/12/13 03:17:32;;;;;;;6.50;5.25;;;;;;;2.25;100.00;100214.72;4935772;29;20028;-78
2020/12/13 03:19:58;;;;;;;6.85;5.05;;;;;;;2.21;100.00;100224.72;4935461;29;20039;-78
2020/12/13 03:22:23;;;;;;;3.67;2.88;;;;;;;2.23;100.00;100224.53;4936796;29;20194;-78
2020/12/13 03:24:49;;;;;;;5.72;4.68;;;;;;;2.24;100.00;100219.16;4936660;29;20100;-78
2020/12/13 03:27:14;;;;;;;5.28;4.50;;;;;;;2.18;100.00;100211.94;4935733;29;20091;-79
2020/12/13 03:29:39;;;;;;;4.00;3.53;;;;;;;2.18;100.00;100214.56;4936537;29;20020;-79
2020/12/13 03:32:05;;;;;;;5.28;4.43;;;;;;;2.15;100.00;100209.66;4936553;29;20123;-79
2020/12/13 03:34:30;;;;;;;6.10;4.57;;;;;;;2.23;100.00;100217.50;4936413;29;20465;-79
2020/12/13 03:36:56;;;;;;;5.70;4.35;;;;;;;2.20;100.00;100224.88;4951529;29;20409;-79
2020/12/13 03:39:21;;;;;;;6.22;4.78;;;;;;;2.16;100.00;100221.78;4935394;29;20087;-78
2020/12/13 03:41:46;;;;;;;5.35;3.78;;;;;;;2.16;100.00;100221.78;4935385;29;20090;-78
2020/12/13 03:44:13;;;;;;;7.28;4.88;;;;;;;2.16;100.00;100220.97;4935371;29;20024;-78
2020/12/13 03:46:40;;;;;;;6.85;5.20;;;;;;;2.11;100.00;100223.22;4935447;29;20094;-79
2020/12/13 03:49:05;;;;;;;7.03;4.32;;;;;;;2.07;100.00;100228.00;4935126;29;20032;-78
2020/12/13 03:51:31;;;;;;;5.38;4.50;;;;;;;2.13;100.00;100224.72;4935369;29;20457;-77
2020/12/13 03:53:56;;;;;;;6.13;4.55;;;;;;;2.18;100.00;100227.69;4935289;29;20042;-79
2020/12/13 03:56:22;;;;;;;9.40;6.45;;;;;;;2.15;100.00;100221.91;4935309;29;20136;-79
2020/12/13 03:58:47;;;;;;;10.65;7.07;;;;;;;2.14;100.00;100230.78;4935952;29;20024;-79
2020/12/13 04:01:12;;;;;;;7.72;5.80;;;;;;;2.14;100.00;100239.44;4936027;29;20048;-78
2020/12/13 04:03:38;;;;;;;23.02;16.77;;;;;;;2.12;100.00;100237.97;4950837;29;20024;-79
2020/12/13 04:06:03;;;;;;;10.52;8.32;;;;;;;2.09;100.00;100239.13;4950970;29;20457;-79
2020/12/13 04:08:28;;;;;;;15.13;10.13;;;;;;;2.17;100.00;100254.03;4936249;29;20079;-78
2020/12/13 04:10:54;;;;;;;11.18;7.38;;;;;;;2.13;100.00;100240.44;4954313;29;20503;-79
2020/12/13 04:13:19;;;;;;;11.63;8.23;;;;;;;2.11;100.00;100242.38;4940377;29;20035;-78
2020/12/13 04:15:45;;;;;;;14.60;11.35;;;;;;;2.15;100.00;100240.25;4940129;29;20071;-78
2020/12/13 04:18:10;;;;;;;10.68;6.95;;;;;;;2.12;100.00;100245.81;4939787;29;20028;-79
2020/12/13 04:20:36;;;;;;;17.77;13.05;;;;;;;2.11;100.00;100247.63;4939994;29;20532;-79
2020/12/13 04:23:01;;;;;;;17.33;12.30;;;;;;;2.03;100.00;100243.22;4938916;29;20110;-79
2020/12/13 04:25:26;;;;;;;13.40;9.40;;;;;;;2.08;100.00;100247.94;4954941;29;20358;-79
2020/12/13 04:27:52;;;;;;;11.02;7.85;;;;;;;2.03;100.00;100247.63;4938938;29;20036;-79
2020/12/13 04:30:18;;;;;;;10.50;6.75;;;;;;;2.06;100.00;100244.69;4939770;29;20070;-79
2020/12/13 04:32:43;;;;;;;10.23;6.35;;;;;;;2.07;100.00;100254.19;4954141;29;20031;-79
2020/12/13 04:35:09;;;;;;;11.80;7.13;;;;;;;2.08;100.00;100241.91;4954812;29;20031;-78
2020/12/13 04:37:35;;;;;;;10.23;6.97;;;;;;;2.10;100.00;100247.81;4939577;29;20024;-79
2020/12/13 04:40:04;;;;;;;9.13;6.80;;;;;;;2.13;100.00;100244.88;4954442;29;20027;-79
2020/12/13 04:42:34;;;;;;;12.15;7.65;;;;;;;2.12;100.00;100246.66;4954235;29;20041;-79
2020/12/13 04:45:00;;;;;;;34.97;17.70;;;;;;;2.08;100.00;100247.94;4954646;29;20020;-79
2020/12/13 04:47:28;;;;;;;36.13;17.40;;;;;;;2.08;100.00;100249.75;4954557;29;20024;-79
2020/12/13 04:49:54;;;;;;;39.42;21.08;;;;;;;2.08;100.00;100255.81;4938526;29;20039;-79
2020/12/13 04:52:20;;;;;;;27.92;16.38;;;;;;;2.03;100.00;100255.50;4939257;29;20032;-79
2020/12/13 04:54:48;;;;;;;35.33;19.80;;;;;;;1.89;100.00;100263.97;4954315;29;20044;-79
2020/12/13 04:57:13;;;;;;;23.67;14.95;;;;;;;1.87;100.00;100258.06;4938389;29;20023;-77
2020/12/13 04:59:40;;;;;;;27.65;15.82;;;;;;;1.97;100.00;100254.34;4939735;29;20039;-79
2020/12/13 05:02:06;;;;;;;24.23;15.95;;;;;;;1.97;100.00;100250.91;4938019;29;20074;-79
2020/12/13 05:04:32;;;;;;;22.15;14.45;;;;;;;1.93;100.00;100241.72;4954205;29;20031;-78
2020/12/13 05:06:58;;;;;;;22.33;13.43;;;;;;;1.92;100.00;100250.56;4953215;29;20443;-79
2020/12/13 05:09:23;;;;;;;19.98;13.52;;;;;;;1.85;100.00;100260.88;4939088;29;20098;-78
2020/12/13 05:11:49;;;;;;;24.55;14.65;;;;;;;1.90;100.00;100252.50;4954055;29;20477;-78
2020/12/13 05:14:15;;;;;;;22.85;14.35;;;;;;;1.94;100.00;100251.22;4954116;29;20479;-78
2020/12/13 05:16:40;;;;;;;23.52;15.30;;;;;;;1.89;100.00;100251.69;4954021;29;20106;-79
2020/12/13 05:19:06;;;;;;;26.23;15.98;;;;;;;1.84;100.00;100254.78;4938841;29;20373;-78
2020/12/13 05:21:32;;;;;;;29.55;16.95;;;;;;;1.87;100.00;100258.06;4937245;29;20043;-79
2020/12/13 05:24:00;;;;;;;34.67;20.42;;;;;;;1.89;100.00;100254.31;4937902;29;20023;-79
2020/12/13 05:26:26;;;;;;;32.80;21.20;;;;;;;1.90;100.00;100250.72;4953806;29;20027;-79
2020/12/13 05:28:53;;;;;;;39.03;23.02;;;;;;;1.98;100.00;100252.53;4938919;29;20023;-79
2020/12/13 05:31:24;;;;;;;45.50;26.08;;;;;;;1.92;100.00;100248.75;4938705;29;20044;-79
2020/12/13 05:33:53;;;;;;;37.97;22.47;;;;;;;1.91;100.00;100262.03;4939116;29;20472;-79
2020/12/13 05:36:19;;;;;;;33.75;20.50;;;;;;;1.92;100.00;100269.72;4938318;29;20366;-79
2020/12/13 05:38:46;;;;;;;40.00;24.08;;;;;;;2.01;100.00;100266.13;4953494;29;20115;-78
2020/12/13 05:41:14;;;;;;;33.15;20.63;;;;;;;2.00;100.00;100272.34;4938434;29;20027;-78
2020/12/13 05:49:35;;;;;;;18.27;11.85;;;;;;;2.03;100.00;100281.69;4938503;29;20047;-78
2020/12/13 05:52:01;;;;;;;18.35;11.07;;;;;;;2.06;100.00;100289.22;4937384;29;20477;-79
2020/12/13 05:54:27;;;;;;;16.35;10.25;;;;;;;2.05;100.00;100291.00;4938279;29;20031;-79
2020/12/13 05:57:01;;;;;;;17.02;10.73;;;;;;;1.99;100.00;100298.69;4938516;29;20039;-79
2020/12/13 05:59:29;;;;;;;14.43;10.05;;;;;;;1.96;100.00;100299.81;4938224;29;20039;-78
2020/12/13 06:01:57;;;;;;;16.75;10.77;;;;;;;2.02;100.00;100301.81;4936958;29;20377;-79
2020/12/13 06:04:33;;;;;;;14.90;9.93;;;;;;;2.08;100.00;100305.59;4937829;29;20038;-78
2020/12/13 06:07:02;;;;;;;14.20;9.23;;;;;;;2.08;100.00;100308.22;4937988;29;20035;-78
2020/12/13 06:09:46;;;;;;;13.90;8.40;;;;;;;2.10;100.00;100310.69;4938091;29;20026;-79
2020/12/13 06:12:12;;;;;;;15.10;9.68;;;;;;;2.13;100.00;100312.97;4937652;29;20027;-79
2020/12/13 06:14:42;;;;;;;15.90;9.85;;;;;;;2.09;100.00;100320.34;4938013;29;20023;-78
2020/12/13 06:17:08;;;;;;;14.45;9.45;;;;;;;2.08;100.00;100325.75;4936886;29;20122;-79
2020/12/13 06:19:37;;;;;;;15.20;9.18;;;;;;;2.13;100.00;100328.69;4937501;29;20079;-79
2020/12/13 06:22:03;;;;;;;12.15;7.80;;;;;;;2.05;100.00;100326.88;4936874;29;20038;-79
2020/12/13 06:24:30;;;;;;;13.50;8.00;;;;;;;2.04;100.00;100333.09;4953043;29;20031;-78
2020/12/13 06:26:56;;;;;;;15.73;9.25;;;;;;;2.02;100.00;100333.25;4937643;29;20429;-78
2020/12/13 06:29:24;;;;;;;15.35;8.98;;;;;;;2.01;100.00;100342.09;4936649;29;20122;-77
2020/12/13 06:31:51;;;;;;;18.50;10.23;;;;;;;2.04;100.00;100346.19;4952045;28;20032;-79
2020/12/13 06:34:16;;;;;;;34.22;21.05;;;;;;;2.05;100.00;100350.44;4937001;29;20028;-78
2020/12/13 06:36:43;;;;;;;19.73;12.60;;;;;;;2.02;100.00;100353.38;4937641;29;20031;-79
2020/12/13 06:39:14;;;;;;;14.18;9.60;;;;;;;2.04;100.00;100356.69;4936462;29;20030;-79
2020/12/13 06:41:45;;;;;;;19.60;11.48;;;;;;;1.99;100.00;100354.53;4937356;29;20023;-79
2020/12/13 06:44:12;;;;;;;40.75;25.70;;;;;;;2.08;100.00;100371.09;4936364;29;20472;-78
2020/12/13 06:46:40;;;;;;;24.63;15.18;;;;;;;2.03;100.00;100362.91;4937393;29;20383;-78
2020/12/13 06:49:10;;;;;;;23.65;14.50;;;;;;;2.11;100.00;100365.53;4936129;29;20070;-77
2020/12/13 06:51:38;;;;;;;19.50;12.30;;;;;;;1.98;100.00;100373.84;4952276;28;20053;-78
2020/12/13 06:54:07;;;;;;;24.17;14.55;;;;;;;2.01;100.00;100378.78;4936246;29;20033;-78
2020/12/13 06:56:33;;;;;;;27.55;14.98;;;;;;;1.95;100.00;100371.53;4937428;29;20062;-78
2020/12/13 06:59:01;;;;;;;23.70;13.25;;;;;;;2.07;100.00;100372.06;4935586;29;20366;-78
2020/12/13 07:01:39;;;;;;;63.92;38.70;;;;;;;2.03;100.00;100368.16;4951542;29;20110;-78
2020/12/13 07:04:28;;;;;;;37.70;21.40;;;;;;;2.06;100.00;100373.06;4936763;29;20533;-78
2020/12/13 07:07:00;;;;;;;23.45;11.90;;;;;;;2.00;100.00;100374.53;4935593;29;20094;-78
2020/12/13 07:09:28;;;;;;;25.67;12.27;;;;;;;2.08;100.00;100373.72;4936073;29;20047;-78
2020/12/13 07:11:54;;;;;;;22.85;12.43;;;;;;;2.20;100.00;100377.69;4936016;29;20063;-78
2020/12/13 07:14:23;;;;;;;21.02;10.98;;;;;;;2.08;100.00;100381.56;4936604;29;20495;-78
2020/12/13 07:17:00;;;;;;;47.83;23.25;;;;;;;2.17;100.00;100383.22;4935926;29;20480;-78
2020/12/13 07:19:29;;;;;;;39.47;21.73;;;;;;;2.18;100.00;100374.41;4943587;28;20035;-78
2020/12/13 07:22:03;;;;;;;21.55;11.60;;;;;;;2.21;100.00;100381.09;4970320;28;20484;-77
2020/12/13 07:24:29;;;;;;;26.02;15.13;;;;;;;2.33;100.00;100387.72;4602434;28;10000017;-77
2020/12/13 07:26:56;;;;;;;27.83;12.73;;;;;;;2.30;100.00;100398.53;4947962;28;20035;-78
2020/12/13 07:29:22;;;;;;;26.52;15.35;;;;;;;2.32;100.00;100406.22;4949320;28;20035;-78
2020/12/13 07:31:48;;;;;;;27.92;15.00;;;;;;;2.33;100.00;100398.22;4946511;28;20031;-76
2020/12/13 07:34:14;;;;;;;25.35;13.38;;;;;;;2.28;100.00;100403.09;4947407;28;20039;-76
2020/12/13 07:36:40;;;;;;;21.02;10.93;;;;;;;2.30;100.00;100409.00;4948098;28;20593;-78
2020/12/13 07:39:08;;;;;;;21.77;12.20;;;;;;;2.32;100.00;100411.47;4948372;28;20117;-78
2020/12/13 07:41:33;;;;;;;26.42;12.85;;;;;;;2.29;100.00;100410.78;4948655;28;20066;-78
2020/12/13 07:44:07;;;;;;;23.77;13.40;;;;;;;2.34;100.00;100417.38;4948066;28;20082;-77
2020/12/13 07:46:34;;;;;;;43.10;20.63;;;;;;;2.32;100.00;100416.69;4927475;28;20133;-77
2020/12/13 07:49:13;;;;;;;28.85;15.70;;;;;;;2.34;100.00;100433.09;4963254;28;20067;-78
2020/12/13 07:51:41;;;;;;;31.52;16.17;;;;;;;2.31;100.00;100438.66;4947305;28;20069;-77
2020/12/13 07:54:14;;;;;;;29.05;15.95;;;;;;;2.32;100.00;100435.03;4944340;29;20046;-78
2020/12/13 07:56:41;;;;;;;28.42;15.13;;;;;;;2.32;100.00;100432.44;4960566;28;20050;-78
2020/12/13 07:59:18;;;;;;;34.17;18.48;;;;;;;2.33;100.00;100434.91;4946379;28;20035;-77
2020/12/13 08:01:46;;;;;;;30.58;15.95;;;;;;;2.33;100.00;100437.53;4946134;28;20051;-78
2020/12/13 08:04:12;;;;;;;34.38;16.25;;;;;;;2.34;100.00;100435.72;4947002;28;20461;-78
2020/12/13 08:06:38;;;;;;;29.73;14.85;;;;;;;2.34;100.00;100451.44;4962514;28;20035;-77
2020/12/13 08:09:13;;;;;;;29.60;14.07;;;;;;;2.31;100.00;100454.38;4962974;28;20046;-76
2020/12/13 08:11:40;;;;;;;42.60;21.23;;;;;;;2.34;100.00;100454.88;4949860;28;20050;-78
2020/12/13 08:14:07;;;;;;;30.73;15.25;;;;;;;2.34;100.00;100451.44;4946289;29;20035;-77
2020/12/13 08:16:34;;;;;;;39.00;17.63;;;;;;;2.40;100.00;100456.06;4946070;29;20038;-77
2020/12/13 08:19:06;;;;;;;48.75;20.73;;;;;;;2.47;100.00;100454.41;4946455;29;20055;-76
2020/12/13 08:21:34;;;;;;;51.67;22.25;;;;;;;2.52;100.00;100450.34;4947249;29;20035;-77
2020/12/13 08:24:02;;;;;;;44.78;20.52;;;;;;;2.47;100.00;100449.19;4947637;28;20038;-78
2020/12/13 08:26:28;;;;;;;54.17;27.42;;;;;;;2.51;100.00;100448.72;4961383;28;20519;-77
2020/12/13 08:28:57;;;;;;;37.90;19.30;;;;;;;2.55;100.00;100446.59;4947223;28;20175;-78
2020/12/13 08:31:28;;;;;;;32.00;16.63;;;;;;;2.56;100.00;100442.97;4947837;28;20046;-78
2020/12/13 08:34:05;;;;;;;23.50;12.85;;;;;;;2.56;100.00;100442.16;4944983;28;20038;-78
2020/12/13 08:36:32;;;;;;;26.02;14.75;;;;;;;2.68;100.00;100454.00;4947278;28;20062;-78
2020/12/13 08:39:09;;;;;;;37.30;20.05;;;;;;;2.69;100.00;100451.22;4944854;28;20039;-78
2020/12/13 08:41:35;;;;;;;38.00;22.10;;;;;;;2.66;100.00;100454.16;4940411;29;20046;-78
2020/12/13 08:44:01;;;;;;;29.48;17.48;;;;;;;2.66;100.00;100455.94;4951852;28;20035;-78
2020/12/13 08:46:37;;;;;;;29.45;16.95;;;;;;;2.64;100.00;100455.31;4946127;28;20106;-78
2020/12/13 08:49:04;;;;;;;34.72;21.50;;;;;;;2.75;100.00;100458.44;4943649;29;20039;-79
2020/12/13 08:51:30;;;;;;;41.17;22.38;;;;;;;2.78;100.00;100459.91;4946265;28;20031;-79
2020/12/13 08:53:57;;;;;;;40.53;20.48;;;;;;;2.77;100.00;100452.22;4947303;28;20031;-79
2020/12/13 08:56:33;;;;;;;30.88;18.40;;;;;;;2.78;100.00;100449.41;4947236;28;20039;-78
2020/12/13 08:58:59;;;;;;;24.08;13.20;;;;;;;2.71;100.00;100451.84;4952351;28;20491;-79
2020/12/13 09:01:28;;;;;;;46.38;26.98;;;;;;;2.73;100.00;100444.66;4946074;28;20047;-78
2020/12/13 09:03:55;;;;;;;90.80;56.90;;;;;;;2.81;100.00;100441.22;4930423;29;20119;-79
2020/12/13 09:06:34;;;;;;;30.20;18.23;;;;;;;2.82;100.00;100442.06;4945753;29;20137;-78
2020/12/13 09:09:13;;;;;;;28.60;16.38;;;;;;;2.87;100.00;100442.38;4938709;29;20027;-78
2020/12/13 09:11:39;;;;;;;26.80;13.70;;;;;;;2.78;100.00;100436.28;4931026;29;20035;-78
2020/12/13 09:14:04;;;;;;;19.48;11.60;;;;;;;2.79;100.00;100445.81;4924927;29;20047;-77
2020/12/13 09:16:33;;;;;;;34.08;18.63;;;;;;;2.82;100.00;100444.69;4931851;29;20058;-77
2020/12/13 09:19:03;;;;;;;30.05;16.00;;;;;;;2.89;100.00;100448.28;4946437;29;20043;-78
2020/12/13 09:21:44;;;;;;;51.40;23.92;;;;;;;2.90;100.00;100439.41;4930370;29;20050;-78
2020/12/13 09:24:09;;;;;;;48.42;23.58;;;;;;;2.98;100.00;100453.38;4929509;29;20453;-78
2020/12/13 09:26:35;;;;;;;94.22;52.65;;;;;;;2.94;100.00;100448.63;4931836;29;20042;-78
2020/12/13 09:29:00;;;;;;;60.95;37.17;;;;;;;2.90;100.00;100442.84;4930557;29;20027;-79
2020/12/13 09:31:25;;;;;;;47.63;25.20;;;;;;;2.98;100.00;100442.88;4932164;29;20473;-78
2020/12/13 09:33:51;;;;;;;55.22;24.83;;;;;;;3.04;100.00;100443.22;4930449;29;20432;-78
2020/12/13 09:36:16;;;;;;;21.83;11.93;;;;;;;2.96;100.00;100446.63;4942629;29;20051;-79
2020/12/13 09:38:41;;;;;;;26.75;14.30;;;;;;;2.97;100.00;100451.75;4917756;29;20036;-79
2020/12/13 09:41:07;;;;;;;36.08;22.20;;;;;;;3.08;100.00;100457.63;4947389;28;20424;-77
2020/12/13 09:43:33;;;;;;;23.38;11.55;;;;;;;3.05;100.00;100452.72;4918908;29;20032;-78
2020/12/13 09:45:59;;;;;;;27.38;13.57;;;;;;;3.00;100.00;100450.59;4930836;29;20093;-78
2020/12/13 09:48:24;;;;;;;21.75;13.02;;;;;;;2.80;100.00;100450.06;4944232;28;20517;-78
2020/12/13 09:50:49;;;;;;;17.42;9.77;;;;;;;2.98;100.00;100450.75;4931091;29;20500;-79
2020/12/13 09:53:15;;;;;;;9.07;5.20;;;;;;;2.86;100.00;100446.00;4929623;28;20043;-78
2020/12/13 09:55:40;;;;;;;6.72;4.93;;;;;;;2.84;100.00;100446.13;4939644;28;20449;-78
2020/12/13 09:58:06;;;;;;;6.80;4.75;;;;;;;2.96;100.00;100442.22;4940401;28;20035;-77
2020/12/13 10:00:31;;;;;;;6.68;3.92;;;;;;;2.84;100.00;100429.59;4925831;29;20103;-79
2020/12/13 10:02:56;;;;;;;8.13;4.85;;;;;;;3.04;100.00;100428.28;4965397;28;20070;-79
2020/12/13 10:05:34;;;;;;;4.60;3.20;;;;;;;2.86;100.00;100435.50;4965677;28;20047;-78
2020/12/13 10:10:43;;;;;;;5.22;3.35;;;;;;;2.93;100.00;100431.22;4965985;28;20391;-79
2020/12/13 10:13:09;;;;;;;6.40;3.88;;;;;;;2.94;100.00;100430.25;4964640;28;20039;-78
2020/12/13 10:15:34;;;;;;;7.53;4.03;;;;;;;3.04;100.00;100422.22;4948684;28;20477;-79
2020/12/13 10:17:59;;;;;;;13.40;9.82;;;;;;;2.98;100.00;100419.25;4960093;28;20037;-79
2020/12/13 10:20:25;;;;;;;18.65;12.68;;;;;;;3.05;100.00;100411.56;4964340;28;20049;-77
2020/12/13 10:22:50;;;;;;;49.20;23.23;;;;;;;3.08;100.00;100415.66;4966164;28;20086;-79
2020/12/13 10:25:16;;;;;;;23.63;14.65;;;;;;;3.22;100.00;100415.00;4965032;28;20034;-78
2020/12/13 10:27:41;;;;;;;17.48;11.45;;;;;;;3.21;100.00;100414.19;4948903;28;20485;-79
2020/12/13 10:30:07;;;;;;;12.55;7.57;;;;;;;3.26;100.00;100410.22;4938593;28;20492;-78
2020/12/13 10:32:32;;;;;;;9.55;6.53;;;;;;;3.17;100.00;100404.97;4965332;28;20033;-78
2020/12/13 10:34:57;;;;;;;38.05;18.33;;;;;;;3.06;100.00;100415.03;4965365;28;20084;-79
2020/12/13 10:37:23;;;;;;;20.73;11.30;;;;;;;3.26;100.00;100420.72;4950114;28;20428;-78
2020/12/13 10:39:48;;;;;;;13.88;9.10;;;;;;;3.13;100.00;100413.38;4947920;28;20034;-78
2020/12/13 10:42:13;;;;;;;8.25;7.18;;;;;;;3.27;100.00;100417.13;4965746;28;20104;-78
2020/12/13 10:44:39;;;;;;;5.85;3.47;;;;;;;3.10;100.00;100418.94;4951522;28;20069;-79
2020/12/13 10:47:04;;;;;;;6.18;4.15;;;;;;;3.16;100.00;100411.22;4970455;28;20117;-78
2020/12/13 10:49:30;;;;;;;9.02;6.07;;;;;;;3.02;100.00;100411.88;4954610;28;20018;-79
2020/12/13 10:51:56;;;;;;;6.55;4.97;;;;;;;3.09;100.00;100414.69;4972700;28;20046;-78
2020/12/13 10:54:22;;;;;;;6.57;4.13;;;;;;;3.05;100.00;100410.75;4970651;28;20026;-78
2020/12/13 10:56:47;;;;;;;4.90;3.70;;;;;;;3.00;100.00;100403.38;4969409;28;20030;-78
2020/12/13 10:59:12;;;;;;;7.38;5.10;;;;;;;2.98;100.00;100406.16;4956134;28;20039;-79
2020/12/13 11:01:38;;;;;;;10.38;6.00;;;;;;;3.10;100.00;100418.94;4954522;28;20054;-79
2020/12/13 11:04:03;;;;;;;16.08;8.45;;;;;;;3.04;100.00;100416.97;4971772;28;20109;-78
2020/12/13 11:06:30;;;;;;;14.95;7.38;;;;;;;3.41;100.00;100426.94;4971714;28;20026;-78
2020/12/13 11:08:56;;;;;;;17.40;12.43;;;;;;;3.36;100.00;100430.09;4970902;28;20444;-79
2020/12/13 11:11:21;;;;;;;15.20;10.82;;;;;;;3.25;100.00;100425.16;4968787;28;20125;-78
2020/12/13 11:13:47;;;;;;;16.55;12.90;;;;;;;3.16;100.00;100423.53;4969015;28;20031;-80
2020/12/13 11:16:12;;;;;;;11.20;7.60;;;;;;;3.19;100.00;100429.28;4953878;28;20104;-77
2020/12/13 11:18:39;;;;;;;10.13;6.18;;;;;;;3.17;100.00;100433.84;4954710;28;20026;-78
2020/12/13 11:21:04;;;;;;;7.55;4.75;;;;;;;3.36;100.00;100435.34;4951051;28;20394;-79
2020/12/13 11:23:30;;;;;;;11.90;8.23;;;;;;;3.33;100.00;100442.69;4953225;28;21355;-79
2020/12/13 11:25:55;;;;;;;9.02;6.32;;;;;;;3.41;100.00;100437.44;4955457;28;20026;-79
2020/12/13 11:28:21;;;;;;;5.50;3.92;;;;;;;3.19;100.00;100433.72;4953667;28;20049;-77